sensor_id;sensor_type;location;lat;lon;timestamp;temperature;humidity
14097;DHT22;7125;48.106;11.544;2022-07-06T00:00:07;17.60;99.90
14097;DHT22;7125;48.106;11.544;2022-07-06T00:02:35;17.60;99.90
14097;DHT22;7125;48.106;11.544;2022-07-06T00:05:02;17.70;99.90
14097;DHT22;7125;48.106;11.544;2022-07-06T00:07:30;17.70;99.90
14097;DHT22;7125;48.106;11.544;2022-07-06T00:09:57;17.70;99.90
14097;DHT22;7125;48.106;11.544;2022-07-06T00:12:24;17.70;99.90
14097;DHT22;7125;48.106;11.544;2022-07-06T00:14:51;17.80;99.90
14097;DHT22;7125;48.106;11.544;2022-07-06T00:17:18;17.80;99.90
14097;DHT22;7125;48.106;11.544;2022-07-06T00:19:45;17.80;99.90
14097;DHT22;7125;48.106;11.544;2022-07-06T00:22:12;17.90;99.90
14097;DHT22;7125;48.106;11.544;2022-07-06T00:24:40;17.90;99.90
14097;DHT22;7125;48.106;11.544;2022-07-06T00:27:07;17.90;99.90
14097;DHT22;7125;48.106;11.544;2022-07-06T00:29:33;17.90;99.90
14097;DHT22;7125;48.106;11.544;2022-07-06T00:32:00;17.80;99.90
14097;DHT22;7125;48.106;11.544;2022-07-06T00:34:27;17.80;99.90
14097;DHT22;7125;48.106;11.544;2022-07-06T00:36:54;17.80;99.90
14097;DHT22;7125;48.106;11.544;2022-07-06T00:39:21;17.80;99.90
14097;DHT22;7125;48.106;11.544;2022-07-06T00:41:50;17.70;99.90
14097;DHT22;7125;48.106;11.544;2022-07-06T00:44:17;17.70;99.90
14097;DHT22;7125;48.106;11.544;2022-07-06T00:46:44;17.70;99.90
14097;DHT22;7125;48.106;11.544;2022-07-06T00:49:11;17.70;99.90
14097;DHT22;7125;48.106;11.544;2022-07-06T00:51:58;17.60;99.90
14097;DHT22;7125;48.106;11.544;2022-07-06T00:54:26;17.70;99.90
14097;DHT22;7125;48.106;11.544;2022-07-06T00:56:55;17.70;99.90
14097;DHT22;7125;48.106;11.544;2022-07-06T00:59:23;17.80;99.90
14097;DHT22;7125;48.106;11.544;2022-07-06T01:01:50;17.80;99.90
14097;DHT22;7125;48.106;11.544;2022-07-06T01:04:16;17.80;99.90
14097;DHT22;7125;48.106;11.544;2022-07-06T01:06:45;17.80;99.90
14097;DHT22;7125;48.106;11.544;2022-07-06T01:09:12;17.80;99.90
14097;DHT22;7125;48.106;11.544;2022-07-06T01:11:39;17.80;99.90
14097;DHT22;7125;48.106;11.544;2022-07-06T01:14:08;17.80;99.90
14097;DHT22;7125;48.106;11.544;2022-07-06T01:16:34;17.80;99.90
14097;DHT22;7125;48.106;11.544;2022-07-06T01:19:01;17.80;99.90
14097;DHT22;7125;48.106;11.544;2022-07-06T01:21:30;17.80;99.90
14097;DHT22;7125;48.106;11.544;2022-07-06T01:23:56;17.80;99.90
14097;DHT22;7125;48.106;11.544;2022-07-06T01:26:23;17.80;99.90
14097;DHT22;7125;48.106;11.544;2022-07-06T01:28:51;17.80;99.90
14097;DHT22;7125;48.106;11.544;2022-07-06T01:31:20;17.70;99.90
14097;DHT22;7125;48.106;11.544;2022-07-06T01:33:48;17.70;99.90
14097;DHT22;7125;48.106;11.544;2022-07-06T01:36:15;17.70;99.90
14097;DHT22;7125;48.106;11.544;2022-07-06T01:38:46;17.60;99.90
14097;DHT22;7125;48.106;11.544;2022-07-06T01:41:13;17.60;99.90
14097;DHT22;7125;48.106;11.544;2022-07-06T01:43:40;17.50;99.90
14097;DHT22;7125;48.106;11.544;2022-07-06T01:46:08;17.50;99.90
14097;DHT22;7125;48.106;11.544;2022-07-06T01:48:35;17.40;99.90
14097;DHT22;7125;48.106;11.544;2022-07-06T01:51:03;17.30;99.90
14097;DHT22;7125;48.106;11.544;2022-07-06T01:53:30;17.30;99.90
14097;DHT22;7125;48.106;11.544;2022-07-06T01:55:59;17.20;99.90
14097;DHT22;7125;48.106;11.544;2022-07-06T01:58:27;17.20;99.90
14097;DHT22;7125;48.106;11.544;2022-07-06T02:00:54;17.20;99.90
14097;DHT22;7125;48.106;11.544;2022-07-06T02:03:21;17.20;99.90
14097;DHT22;7125;48.106;11.544;2022-07-06T02:05:48;17.10;99.90
14097;DHT22;7125;48.106;11.544;2022-07-06T02:08:15;17.20;99.90
14097;DHT22;7125;48.106;11.544;2022-07-06T02:10:41;17.10;99.90
14097;DHT22;7125;48.106;11.544;2022-07-06T02:13:10;17.10;99.90
14097;DHT22;7125;48.106;11.544;2022-07-06T02:15:36;17.10;99.90
14097;DHT22;7125;48.106;11.544;2022-07-06T02:18:04;17.10;99.90
14097;DHT22;7125;48.106;11.544;2022-07-06T02:20:31;17.10;99.90
14097;DHT22;7125;48.106;11.544;2022-07-06T02:22:58;17.10;99.90
14097;DHT22;7125;48.106;11.544;2022-07-06T02:25:25;17.10;99.90
14097;DHT22;7125;48.106;11.544;2022-07-06T02:27:52;17.00;99.90
14097;DHT22;7125;48.106;11.544;2022-07-06T02:30:21;17.00;99.90
14097;DHT22;7125;48.106;11.544;2022-07-06T02:32:48;17.00;99.90
14097;DHT22;7125;48.106;11.544;2022-07-06T02:35:15;16.90;99.90
14097;DHT22;7125;48.106;11.544;2022-07-06T02:37:43;16.90;99.90
14097;DHT22;7125;48.106;11.544;2022-07-06T02:40:11;16.90;99.90
14097;DHT22;7125;48.106;11.544;2022-07-06T02:42:37;16.90;99.90
14097;DHT22;7125;48.106;11.544;2022-07-06T02:45:06;16.80;99.90
14097;DHT22;7125;48.106;11.544;2022-07-06T02:47:35;16.80;99.90
14097;DHT22;7125;48.106;11.544;2022-07-06T02:50:04;16.80;99.90
14097;DHT22;7125;48.106;11.544;2022-07-06T02:52:31;16.80;99.90
14097;DHT22;7125;48.106;11.544;2022-07-06T02:54:59;16.70;99.90
14097;DHT22;7125;48.106;11.544;2022-07-06T02:57:27;16.70;99.90
14097;DHT22;7125;48.106;11.544;2022-07-06T02:59:56;16.70;99.90
14097;DHT22;7125;48.106;11.544;2022-07-06T03:02:22;16.70;99.90
14097;DHT22;7125;48.106;11.544;2022-07-06T03:04:51;16.60;99.90
14097;DHT22;7125;48.106;11.544;2022-07-06T03:07:18;16.60;99.90
14097;DHT22;7125;48.106;11.544;2022-07-06T03:09:45;16.50;99.90
14097;DHT22;7125;48.106;11.544;2022-07-06T03:12:12;16.50;99.90
14097;DHT22;7125;48.106;11.544;2022-07-06T03:14:40;16.50;99.90
14097;DHT22;7125;48.106;11.544;2022-07-06T03:17:07;16.50;99.90
14097;DHT22;7125;48.106;11.544;2022-07-06T03:19:34;16.50;99.90
14097;DHT22;7125;48.106;11.544;2022-07-06T03:22:03;16.40;99.90
14097;DHT22;7125;48.106;11.544;2022-07-06T03:24:30;16.40;99.90
14097;DHT22;7125;48.106;11.544;2022-07-06T03:26:57;16.30;99.90
14097;DHT22;7125;48.106;11.544;2022-07-06T03:29:24;16.30;99.90
14097;DHT22;7125;48.106;11.544;2022-07-06T03:31:51;16.30;99.90
14097;DHT22;7125;48.106;11.544;2022-07-06T03:34:18;16.30;99.90
14097;DHT22;7125;48.106;11.544;2022-07-06T03:36:45;16.30;99.90
14097;DHT22;7125;48.106;11.544;2022-07-06T03:39:14;16.20;99.90
14097;DHT22;7125;48.106;11.544;2022-07-06T03:41:41;16.30;99.90
14097;DHT22;7125;48.106;11.544;2022-07-06T03:44:09;16.30;99.90
14097;DHT22;7125;48.106;11.544;2022-07-06T03:46:36;16.30;99.90
14097;DHT22;7125;48.106;11.544;2022-07-06T03:49:03;16.30;99.90
14097;DHT22;7125;48.106;11.544;2022-07-06T03:51:30;16.30;99.90
14097;DHT22;7125;48.106;11.544;2022-07-06T03:53:57;16.30;99.90
14097;DHT22;7125;48.106;11.544;2022-07-06T03:56:26;16.20;99.90
14097;DHT22;7125;48.106;11.544;2022-07-06T03:59:10;16.30;99.90
14097;DHT22;7125;48.106;11.544;2022-07-06T04:01:38;16.30;99.90
14097;DHT22;7125;48.106;11.544;2022-07-06T04:04:05;16.30;99.90
14097;DHT22;7125;48.106;11.544;2022-07-06T04:06:34;16.30;99.90
14097;DHT22;7125;48.106;11.544;2022-07-06T04:09:02;16.30;99.90
14097;DHT22;7125;48.106;11.544;2022-07-06T04:11:30;16.30;99.90
14097;DHT22;7125;48.106;11.544;2022-07-06T04:13:57;16.30;99.90
14097;DHT22;7125;48.106;11.544;2022-07-06T04:16:25;16.30;99.90
14097;DHT22;7125;48.106;11.544;2022-07-06T04:18:53;16.40;99.90
14097;DHT22;7125;48.106;11.544;2022-07-06T04:21:20;16.40;99.90
14097;DHT22;7125;48.106;11.544;2022-07-06T04:23:47;16.40;99.90
14097;DHT22;7125;48.106;11.544;2022-07-06T04:26:14;16.40;99.90
14097;DHT22;7125;48.106;11.544;2022-07-06T04:28:42;16.40;99.90
14097;DHT22;7125;48.106;11.544;2022-07-06T04:31:09;16.50;99.90
14097;DHT22;7125;48.106;11.544;2022-07-06T04:33:41;16.50;99.90
14097;DHT22;7125;48.106;11.544;2022-07-06T04:36:08;16.50;99.90
14097;DHT22;7125;48.106;11.544;2022-07-06T04:38:40;16.50;99.90
14097;DHT22;7125;48.106;11.544;2022-07-06T04:41:09;16.60;99.90
14097;DHT22;7125;48.106;11.544;2022-07-06T04:43:36;16.60;99.90
14097;DHT22;7125;48.106;11.544;2022-07-06T04:46:05;16.60;99.90
14097;DHT22;7125;48.106;11.544;2022-07-06T04:48:34;16.60;99.90
14097;DHT22;7125;48.106;11.544;2022-07-06T04:51:07;16.60;99.90
14097;DHT22;7125;48.106;11.544;2022-07-06T04:53:34;16.70;99.90
14097;DHT22;7125;48.106;11.544;2022-07-06T04:56:03;16.70;99.90
14097;DHT22;7125;48.106;11.544;2022-07-06T04:58:31;16.70;99.90
14097;DHT22;7125;48.106;11.544;2022-07-06T05:00:59;16.80;99.90
14097;DHT22;7125;48.106;11.544;2022-07-06T05:03:27;16.80;99.90
14097;DHT22;7125;48.106;11.544;2022-07-06T05:05:54;16.90;99.90
14097;DHT22;7125;48.106;11.544;2022-07-06T05:08:21;16.90;99.90
14097;DHT22;7125;48.106;11.544;2022-07-06T05:10:49;16.90;99.90
14097;DHT22;7125;48.106;11.544;2022-07-06T05:13:17;16.90;99.90
14097;DHT22;7125;48.106;11.544;2022-07-06T05:15:44;17.00;99.90
14097;DHT22;7125;48.106;11.544;2022-07-06T05:18:12;17.00;99.90
14097;DHT22;7125;48.106;11.544;2022-07-06T05:20:42;17.10;99.90
14097;DHT22;7125;48.106;11.544;2022-07-06T05:23:10;17.20;99.90
14097;DHT22;7125;48.106;11.544;2022-07-06T05:25:37;17.20;99.90
14097;DHT22;7125;48.106;11.544;2022-07-06T05:28:04;17.30;99.90
14097;DHT22;7125;48.106;11.544;2022-07-06T05:30:31;17.50;99.90
14097;DHT22;7125;48.106;11.544;2022-07-06T05:32:59;17.50;99.90
14097;DHT22;7125;48.106;11.544;2022-07-06T05:35:26;17.60;99.90
14097;DHT22;7125;48.106;11.544;2022-07-06T05:37:55;17.70;99.90
14097;DHT22;7125;48.106;11.544;2022-07-06T05:40:22;17.70;99.90
14097;DHT22;7125;48.106;11.544;2022-07-06T05:42:49;17.80;99.90
14097;DHT22;7125;48.106;11.544;2022-07-06T05:45:16;17.80;99.90
14097;DHT22;7125;48.106;11.544;2022-07-06T05:47:43;17.80;99.90
14097;DHT22;7125;48.106;11.544;2022-07-06T05:50:29;17.80;99.90
14097;DHT22;7125;48.106;11.544;2022-07-06T05:53:00;17.80;99.90
14097;DHT22;7125;48.106;11.544;2022-07-06T05:55:29;17.80;99.90
14097;DHT22;7125;48.106;11.544;2022-07-06T05:57:57;17.80;99.90
14097;DHT22;7125;48.106;11.544;2022-07-06T06:00:27;17.90;99.90
14097;DHT22;7125;48.106;11.544;2022-07-06T06:02:59;17.90;99.90
14097;DHT22;7125;48.106;11.544;2022-07-06T06:05:26;17.90;99.90
14097;DHT22;7125;48.106;11.544;2022-07-06T06:07:59;18.00;99.90
14097;DHT22;7125;48.106;11.544;2022-07-06T06:10:26;18.00;99.90
14097;DHT22;7125;48.106;11.544;2022-07-06T06:12:57;18.00;99.90
14097;DHT22;7125;48.106;11.544;2022-07-06T06:15:25;18.00;99.90
14097;DHT22;7125;48.106;11.544;2022-07-06T06:17:52;18.10;99.90
14097;DHT22;7125;48.106;11.544;2022-07-06T06:20:19;18.20;99.90
14097;DHT22;7125;48.106;11.544;2022-07-06T06:22:47;18.20;99.90
14097;DHT22;7125;48.106;11.544;2022-07-06T06:25:17;18.30;99.90
14097;DHT22;7125;48.106;11.544;2022-07-06T06:27:45;18.40;99.90
14097;DHT22;7125;48.106;11.544;2022-07-06T06:30:12;18.60;99.90
14097;DHT22;7125;48.106;11.544;2022-07-06T06:32:40;18.70;99.90
14097;DHT22;7125;48.106;11.544;2022-07-06T06:35:07;18.80;99.90
14097;DHT22;7125;48.106;11.544;2022-07-06T06:37:34;18.90;99.90
14097;DHT22;7125;48.106;11.544;2022-07-06T06:40:02;19.00;99.90
14097;DHT22;7125;48.106;11.544;2022-07-06T06:42:30;19.00;99.90
14097;DHT22;7125;48.106;11.544;2022-07-06T06:44:58;19.10;99.90
14097;DHT22;7125;48.106;11.544;2022-07-06T06:47:25;19.20;99.90
14097;DHT22;7125;48.106;11.544;2022-07-06T06:49:52;19.30;99.90
14097;DHT22;7125;48.106;11.544;2022-07-06T06:52:19;19.40;99.90
14097;DHT22;7125;48.106;11.544;2022-07-06T06:54:45;19.50;99.90
14097;DHT22;7125;48.106;11.544;2022-07-06T06:57:12;19.50;99.90
14097;DHT22;7125;48.106;11.544;2022-07-06T06:59:40;19.60;99.90
14097;DHT22;7125;48.106;11.544;2022-07-06T07:02:08;19.60;99.90
14097;DHT22;7125;48.106;11.544;2022-07-06T07:04:34;19.70;99.90
14097;DHT22;7125;48.106;11.544;2022-07-06T07:07:01;19.70;99.90
14097;DHT22;7125;48.106;11.544;2022-07-06T07:09:28;19.80;99.90
14097;DHT22;7125;48.106;11.544;2022-07-06T07:11:55;19.90;99.90
14097;DHT22;7125;48.106;11.544;2022-07-06T07:14:23;20.00;99.90
14097;DHT22;7125;48.106;11.544;2022-07-06T07:16:51;20.00;99.90
14097;DHT22;7125;48.106;11.544;2022-07-06T07:19:18;20.10;99.90
14097;DHT22;7125;48.106;11.544;2022-07-06T07:21:45;20.20;99.90
14097;DHT22;7125;48.106;11.544;2022-07-06T07:24:12;20.40;99.80
14097;DHT22;7125;48.106;11.544;2022-07-06T07:26:39;20.40;99.90
14097;DHT22;7125;48.106;11.544;2022-07-06T07:29:05;20.50;99.90
14097;DHT22;7125;48.106;11.544;2022-07-06T07:31:35;20.60;99.90
14097;DHT22;7125;48.106;11.544;2022-07-06T07:34:03;20.60;99.90
14097;DHT22;7125;48.106;11.544;2022-07-06T07:36:30;20.60;99.90
14097;DHT22;7125;48.106;11.544;2022-07-06T07:38:57;20.70;99.20
14097;DHT22;7125;48.106;11.544;2022-07-06T07:41:23;20.70;99.90
14097;DHT22;7125;48.106;11.544;2022-07-06T07:43:50;20.80;99.90
14097;DHT22;7125;48.106;11.544;2022-07-06T07:46:17;20.70;98.60
14097;DHT22;7125;48.106;11.544;2022-07-06T07:48:44;20.80;98.40
14097;DHT22;7125;48.106;11.544;2022-07-06T07:51:13;20.80;98.30
14097;DHT22;7125;48.106;11.544;2022-07-06T07:53:40;20.80;98.80
14097;DHT22;7125;48.106;11.544;2022-07-06T07:56:07;20.80;97.90
14097;DHT22;7125;48.106;11.544;2022-07-06T07:58:34;20.90;97.40
14097;DHT22;7125;48.106;11.544;2022-07-06T08:01:02;20.90;97.70
14097;DHT22;7125;48.106;11.544;2022-07-06T08:03:29;21.00;96.50
14097;DHT22;7125;48.106;11.544;2022-07-06T08:05:57;21.00;96.90
14097;DHT22;7125;48.106;11.544;2022-07-06T08:08:25;21.10;93.60
14097;DHT22;7125;48.106;11.544;2022-07-06T08:10:52;21.10;94.60
14097;DHT22;7125;48.106;11.544;2022-07-06T08:13:19;21.10;94.10
14097;DHT22;7125;48.106;11.544;2022-07-06T08:15:46;21.10;93.10
14097;DHT22;7125;48.106;11.544;2022-07-06T08:18:13;21.20;92.60
14097;DHT22;7125;48.106;11.544;2022-07-06T08:20:40;21.10;92.60
14097;DHT22;7125;48.106;11.544;2022-07-06T08:23:06;21.20;93.90
14097;DHT22;7125;48.106;11.544;2022-07-06T08:25:35;21.20;94.30
14097;DHT22;7125;48.106;11.544;2022-07-06T08:28:02;21.30;93.30
14097;DHT22;7125;48.106;11.544;2022-07-06T08:30:29;21.30;94.00
14097;DHT22;7125;48.106;11.544;2022-07-06T08:32:56;21.30;93.00
14097;DHT22;7125;48.106;11.544;2022-07-06T08:35:23;21.40;94.20
14097;DHT22;7125;48.106;11.544;2022-07-06T08:37:52;21.40;93.50
14097;DHT22;7125;48.106;11.544;2022-07-06T08:40:19;21.40;94.40
14097;DHT22;7125;48.106;11.544;2022-07-06T08:42:50;21.40;94.30
14097;DHT22;7125;48.106;11.544;2022-07-06T08:45:20;21.50;94.00
14097;DHT22;7125;48.106;11.544;2022-07-06T08:47:49;21.60;94.30
14097;DHT22;7125;48.106;11.544;2022-07-06T08:50:16;21.70;93.80
14097;DHT22;7125;48.106;11.544;2022-07-06T08:52:43;21.70;94.40
14097;DHT22;7125;48.106;11.544;2022-07-06T08:55:10;21.80;94.80
14097;DHT22;7125;48.106;11.544;2022-07-06T08:57:38;21.90;93.90
14097;DHT22;7125;48.106;11.544;2022-07-06T09:00:08;22.00;95.10
14097;DHT22;7125;48.106;11.544;2022-07-06T09:02:36;22.00;94.50
14097;DHT22;7125;48.106;11.544;2022-07-06T09:05:04;22.10;94.30
14097;DHT22;7125;48.106;11.544;2022-07-06T09:07:31;22.10;94.50
14097;DHT22;7125;48.106;11.544;2022-07-06T09:10:00;22.20;94.00
14097;DHT22;7125;48.106;11.544;2022-07-06T09:12:27;22.20;94.10
14097;DHT22;7125;48.106;11.544;2022-07-06T09:14:54;22.10;94.30
14097;DHT22;7125;48.106;11.544;2022-07-06T09:17:25;22.30;93.00
14097;DHT22;7125;48.106;11.544;2022-07-06T09:19:53;22.30;92.40
14097;DHT22;7125;48.106;11.544;2022-07-06T09:22:28;22.30;91.50
14097;DHT22;7125;48.106;11.544;2022-07-06T09:25:05;22.20;91.20
14097;DHT22;7125;48.106;11.544;2022-07-06T09:27:37;22.10;91.40
14097;DHT22;7125;48.106;11.544;2022-07-06T09:30:06;22.00;92.60
14097;DHT22;7125;48.106;11.544;2022-07-06T09:32:39;22.00;92.50
14097;DHT22;7125;48.106;11.544;2022-07-06T09:35:07;22.00;92.10
14097;DHT22;7125;48.106;11.544;2022-07-06T09:37:34;22.10;91.20
14097;DHT22;7125;48.106;11.544;2022-07-06T09:40:03;22.10;91.80
14097;DHT22;7125;48.106;11.544;2022-07-06T09:42:43;22.10;92.00
14097;DHT22;7125;48.106;11.544;2022-07-06T09:45:09;22.10;91.70
14097;DHT22;7125;48.106;11.544;2022-07-06T09:47:37;22.20;92.30
14097;DHT22;7125;48.106;11.544;2022-07-06T09:50:07;22.30;90.70
14097;DHT22;7125;48.106;11.544;2022-07-06T09:52:34;22.30;90.90
14097;DHT22;7125;48.106;11.544;2022-07-06T09:55:06;22.30;90.20
14097;DHT22;7125;48.106;11.544;2022-07-06T09:57:52;22.40;92.90
14097;DHT22;7125;48.106;11.544;2022-07-06T10:00:21;22.40;90.20
14097;DHT22;7125;48.106;11.544;2022-07-06T10:02:48;22.40;91.50
14097;DHT22;7125;48.106;11.544;2022-07-06T10:05:17;22.50;88.40
14097;DHT22;7125;48.106;11.544;2022-07-06T10:07:45;22.60;88.90
14097;DHT22;7125;48.106;11.544;2022-07-06T10:10:15;22.60;90.10
14097;DHT22;7125;48.106;11.544;2022-07-06T10:12:42;22.70;90.00
14097;DHT22;7125;48.106;11.544;2022-07-06T10:15:11;22.70;90.30
14097;DHT22;7125;48.106;11.544;2022-07-06T10:17:40;22.80;86.80
14097;DHT22;7125;48.106;11.544;2022-07-06T10:20:08;22.90;87.60
14097;DHT22;7125;48.106;11.544;2022-07-06T10:22:39;23.00;88.30
14097;DHT22;7125;48.106;11.544;2022-07-06T10:25:07;23.00;89.40
14097;DHT22;7125;48.106;11.544;2022-07-06T10:27:35;23.10;89.90
14097;DHT22;7125;48.106;11.544;2022-07-06T10:30:02;23.20;86.60
14097;DHT22;7125;48.106;11.544;2022-07-06T10:32:29;23.20;87.00
14097;DHT22;7125;48.106;11.544;2022-07-06T10:34:56;23.30;90.30
14097;DHT22;7125;48.106;11.544;2022-07-06T10:37:24;23.30;90.10
14097;DHT22;7125;48.106;11.544;2022-07-06T10:39:53;23.20;86.80
14097;DHT22;7125;48.106;11.544;2022-07-06T10:42:41;23.20;88.90
14097;DHT22;7125;48.106;11.544;2022-07-06T10:45:11;23.20;88.20
14097;DHT22;7125;48.106;11.544;2022-07-06T10:47:38;23.30;89.00
14097;DHT22;7125;48.106;11.544;2022-07-06T10:50:06;23.40;89.70
14097;DHT22;7125;48.106;11.544;2022-07-06T10:52:50;23.50;86.00
14097;DHT22;7125;48.106;11.544;2022-07-06T10:55:32;23.40;84.60
14097;DHT22;7125;48.106;11.544;2022-07-06T10:58:03;23.40;84.10
14097;DHT22;7125;48.106;11.544;2022-07-06T11:00:48;23.50;85.40
14097;DHT22;7125;48.106;11.544;2022-07-06T11:03:33;23.60;83.50
14097;DHT22;7125;48.106;11.544;2022-07-06T11:06:01;23.60;85.60
14097;DHT22;7125;48.106;11.544;2022-07-06T11:08:45;23.60;86.20
14097;DHT22;7125;48.106;11.544;2022-07-06T11:11:15;23.70;88.10
14097;DHT22;7125;48.106;11.544;2022-07-06T11:13:48;23.80;85.30
14097;DHT22;7125;48.106;11.544;2022-07-06T11:16:15;23.90;85.10
14097;DHT22;7125;48.106;11.544;2022-07-06T11:18:46;23.90;84.10
14097;DHT22;7125;48.106;11.544;2022-07-06T11:21:18;23.90;80.00
14097;DHT22;7125;48.106;11.544;2022-07-06T11:23:47;24.10;83.20
14097;DHT22;7125;48.106;11.544;2022-07-06T11:26:16;24.10;82.30
14097;DHT22;7125;48.106;11.544;2022-07-06T11:28:45;24.10;78.30
14097;DHT22;7125;48.106;11.544;2022-07-06T11:31:13;24.10;78.20
14097;DHT22;7125;48.106;11.544;2022-07-06T11:33:41;24.10;80.60
14097;DHT22;7125;48.106;11.544;2022-07-06T11:36:15;24.20;78.10
14097;DHT22;7125;48.106;11.544;2022-07-06T11:38:43;24.30;81.70
14097;DHT22;7125;48.106;11.544;2022-07-06T11:41:11;24.40;77.60
14097;DHT22;7125;48.106;11.544;2022-07-06T11:43:41;24.40;82.80
14097;DHT22;7125;48.106;11.544;2022-07-06T11:46:21;24.40;82.10
14097;DHT22;7125;48.106;11.544;2022-07-06T11:48:48;24.40;81.60
14097;DHT22;7125;48.106;11.544;2022-07-06T11:51:16;24.40;82.10
14097;DHT22;7125;48.106;11.544;2022-07-06T11:53:44;24.50;79.20
14097;DHT22;7125;48.106;11.544;2022-07-06T11:56:11;24.60;79.10
14097;DHT22;7125;48.106;11.544;2022-07-06T11:58:40;24.80;76.70
14097;DHT22;7125;48.106;11.544;2022-07-06T12:01:10;24.90;78.10
14097;DHT22;7125;48.106;11.544;2022-07-06T12:03:37;25.00;75.70
14097;DHT22;7125;48.106;11.544;2022-07-06T12:06:05;25.00;78.00
14097;DHT22;7125;48.106;11.544;2022-07-06T12:08:41;25.00;77.40
14097;DHT22;7125;48.106;11.544;2022-07-06T12:11:08;25.10;81.10
14097;DHT22;7125;48.106;11.544;2022-07-06T12:13:36;25.10;78.80
14097;DHT22;7125;48.106;11.544;2022-07-06T12:16:11;25.10;78.40
14097;DHT22;7125;48.106;11.544;2022-07-06T12:18:39;25.10;76.10
14097;DHT22;7125;48.106;11.544;2022-07-06T12:21:07;25.00;75.20
14097;DHT22;7125;48.106;11.544;2022-07-06T12:23:39;24.90;75.50
14097;DHT22;7125;48.106;11.544;2022-07-06T12:26:06;24.90;77.20
14097;DHT22;7125;48.106;11.544;2022-07-06T12:28:33;24.90;76.00
14097;DHT22;7125;48.106;11.544;2022-07-06T12:31:00;24.80;77.70
14097;DHT22;7125;48.106;11.544;2022-07-06T12:33:28;24.70;76.00
14097;DHT22;7125;48.106;11.544;2022-07-06T12:35:56;24.70;77.00
14097;DHT22;7125;48.106;11.544;2022-07-06T12:38:23;24.80;77.90
14097;DHT22;7125;48.106;11.544;2022-07-06T12:40:50;24.90;75.60
14097;DHT22;7125;48.106;11.544;2022-07-06T12:43:35;25.00;75.10
14097;DHT22;7125;48.106;11.544;2022-07-06T12:46:26;24.90;73.70
14097;DHT22;7125;48.106;11.544;2022-07-06T12:48:57;24.90;76.40
14097;DHT22;7125;48.106;11.544;2022-07-06T12:51:24;25.00;75.10
14097;DHT22;7125;48.106;11.544;2022-07-06T12:53:51;25.00;75.20
14097;DHT22;7125;48.106;11.544;2022-07-06T12:56:18;24.90;74.60
14097;DHT22;7125;48.106;11.544;2022-07-06T12:58:56;24.80;74.10
14097;DHT22;7125;48.106;11.544;2022-07-06T13:01:23;24.70;75.50
14097;DHT22;7125;48.106;11.544;2022-07-06T13:03:56;24.70;72.80
14097;DHT22;7125;48.106;11.544;2022-07-06T13:06:29;24.60;74.40
14097;DHT22;7125;48.106;11.544;2022-07-06T13:08:57;24.50;76.40
14097;DHT22;7125;48.106;11.544;2022-07-06T13:11:24;24.40;77.20
14097;DHT22;7125;48.106;11.544;2022-07-06T13:13:50;24.50;76.60
14097;DHT22;7125;48.106;11.544;2022-07-06T13:16:17;24.70;78.10
14097;DHT22;7125;48.106;11.544;2022-07-06T13:18:44;24.90;76.80
14097;DHT22;7125;48.106;11.544;2022-07-06T13:21:13;25.10;73.10
14097;DHT22;7125;48.106;11.544;2022-07-06T13:23:40;25.20;73.00
14097;DHT22;7125;48.106;11.544;2022-07-06T13:26:07;25.30;75.40
14097;DHT22;7125;48.106;11.544;2022-07-06T13:28:34;25.40;73.50
14097;DHT22;7125;48.106;11.544;2022-07-06T13:31:01;25.50;72.00
14097;DHT22;7125;48.106;11.544;2022-07-06T13:33:28;25.60;73.30
14097;DHT22;7125;48.106;11.544;2022-07-06T13:35:55;25.60;72.50
14097;DHT22;7125;48.106;11.544;2022-07-06T13:38:23;25.80;71.30
14097;DHT22;7125;48.106;11.544;2022-07-06T13:40:50;25.90;72.70
14097;DHT22;7125;48.106;11.544;2022-07-06T13:43:17;26.00;71.80
14097;DHT22;7125;48.106;11.544;2022-07-06T13:45:44;26.10;69.30
14097;DHT22;7125;48.106;11.544;2022-07-06T13:48:10;26.20;70.40
14097;DHT22;7125;48.106;11.544;2022-07-06T13:50:38;26.30;72.20
14097;DHT22;7125;48.106;11.544;2022-07-06T13:53:05;26.40;70.00
14097;DHT22;7125;48.106;11.544;2022-07-06T13:55:35;26.40;68.00
14097;DHT22;7125;48.106;11.544;2022-07-06T13:58:02;26.50;70.60
14097;DHT22;7125;48.106;11.544;2022-07-06T14:00:29;26.50;68.10
14097;DHT22;7125;48.106;11.544;2022-07-06T14:02:58;26.50;68.70
14097;DHT22;7125;48.106;11.544;2022-07-06T14:05:25;26.50;70.50
14097;DHT22;7125;48.106;11.544;2022-07-06T14:07:52;26.40;69.50
14097;DHT22;7125;48.106;11.544;2022-07-06T14:10:18;26.30;73.00
14097;DHT22;7125;48.106;11.544;2022-07-06T14:12:47;26.10;67.30
14097;DHT22;7125;48.106;11.544;2022-07-06T14:15:13;26.10;67.40
14097;DHT22;7125;48.106;11.544;2022-07-06T14:17:40;25.90;68.70
14097;DHT22;7125;48.106;11.544;2022-07-06T14:20:08;25.70;66.00
14097;DHT22;7125;48.106;11.544;2022-07-06T14:22:36;25.60;68.00
14097;DHT22;7125;48.106;11.544;2022-07-06T14:25:04;25.60;67.20
14097;DHT22;7125;48.106;11.544;2022-07-06T14:27:32;25.80;70.20
14097;DHT22;7125;48.106;11.544;2022-07-06T14:30:01;26.00;66.80
14097;DHT22;7125;48.106;11.544;2022-07-06T14:32:28;26.30;67.60
14097;DHT22;7125;48.106;11.544;2022-07-06T14:34:55;26.30;64.80
14097;DHT22;7125;48.106;11.544;2022-07-06T14:37:22;26.30;64.70
14097;DHT22;7125;48.106;11.544;2022-07-06T14:39:48;26.20;67.40
14097;DHT22;7125;48.106;11.544;2022-07-06T14:42:16;26.30;65.00
14097;DHT22;7125;48.106;11.544;2022-07-06T14:44:43;26.30;67.40
14097;DHT22;7125;48.106;11.544;2022-07-06T14:47:12;26.40;65.20
14097;DHT22;7125;48.106;11.544;2022-07-06T14:49:39;26.50;65.20
14097;DHT22;7125;48.106;11.544;2022-07-06T14:52:06;26.70;65.10
14097;DHT22;7125;48.106;11.544;2022-07-06T14:54:34;26.70;64.60
14097;DHT22;7125;48.106;11.544;2022-07-06T14:57:02;26.60;65.90
14097;DHT22;7125;48.106;11.544;2022-07-06T14:59:29;26.30;64.30
14097;DHT22;7125;48.106;11.544;2022-07-06T15:01:56;25.90;65.30
14097;DHT22;7125;48.106;11.544;2022-07-06T15:04:25;25.60;66.90
14097;DHT22;7125;48.106;11.544;2022-07-06T15:06:53;25.70;67.70
14097;DHT22;7125;48.106;11.544;2022-07-06T15:09:19;25.80;64.30
14097;DHT22;7125;48.106;11.544;2022-07-06T15:11:46;25.80;65.20
14097;DHT22;7125;48.106;11.544;2022-07-06T15:14:13;25.80;65.60
14097;DHT22;7125;48.106;11.544;2022-07-06T15:16:41;25.90;64.40
14097;DHT22;7125;48.106;11.544;2022-07-06T15:19:09;26.10;63.50
14097;DHT22;7125;48.106;11.544;2022-07-06T15:21:37;26.30;63.20
14097;DHT22;7125;48.106;11.544;2022-07-06T15:24:06;26.50;63.60
14097;DHT22;7125;48.106;11.544;2022-07-06T15:26:33;26.60;62.30
14097;DHT22;7125;48.106;11.544;2022-07-06T15:29:00;26.60;63.30
14097;DHT22;7125;48.106;11.544;2022-07-06T15:31:27;26.70;63.50
14097;DHT22;7125;48.106;11.544;2022-07-06T15:33:54;26.80;65.10
14097;DHT22;7125;48.106;11.544;2022-07-06T15:36:21;27.10;61.30